Time;durP1;ratioP1;P1;durP2;ratioP2;P2;SDS_P1;SDS_P2;PMS_P1;PMS_P2;Temp;Humidity;BMP_temperature;BMP_pressure;BME280_temperature;BME280_humidity;BME280_pressure;Samples;Min_cycle;Max_cycle;Signal;HPM_P1;HPM_P2
2023/01/25 18:27:45;;;;;;;31.63;12.77;;;0.10;99.90;;;;;;4200472;28;20471;-66
2023/01/25 18:30:00;;;;;;;35.17;15.10;;;0.10;99.90;;;;;;4170391;28;1209255;-68
2023/01/25 18:32:01;;;;;;;34.23;14.13;;;0.10;99.90;;;;;;4187742;28;20446;-66
2023/01/25 18:34:02;;;;;;;23.80;11.67;;;0.10;99.90;;;;;;4198872;28;20417;-66
2023/01/25 18:36:04;;;;;;;33.97;13.80;;;0.20;99.90;;;;;;4181019;28;20193;-66
2023/01/25 18:38:05;;;;;;;34.50;13.97;;;0.20;99.90;;;;;;4180801;28;20511;-66
2023/01/25 18:40:06;;;;;;;31.00;14.03;;;0.10;99.90;;;;;;4198067;28;21164;-66
2023/01/25 18:42:07;;;;;;;35.63;14.17;;;0.00;99.90;;;;;;4180296;28;20264;-66
2023/01/25 18:44:08;;;;;;;31.03;13.50;;;-0.10;99.90;;;;;;4198469;28;20430;-66
2023/01/25 18:46:10;;;;;;;24.80;11.67;;;0.00;99.90;;;;;;4192720;28;20704;-67
2023/01/25 18:48:12;;;;;;;36.93;13.67;;;0.30;99.90;;;;;;4197257;28;20422;-68
2023/01/25 18:50:14;;;;;;;27.87;12.67;;;0.30;99.90;;;;;;4197906;28;20507;-67
2023/01/25 18:52:18;;;;;;;26.90;11.00;;;0.20;99.90;;;;;;4194587;28;20937;-67
2023/01/25 18:54:19;;;;;;;32.00;12.40;;;0.20;99.90;;;;;;4182498;28;20436;-66
2023/01/25 18:56:20;;;;;;;27.57;13.17;;;0.20;99.90;;;;;;4197466;28;20433;-66
2023/01/25 18:58:21;;;;;;;34.13;14.73;;;0.20;99.90;;;;;;4197659;28;20241;-65
2023/01/25 19:00:22;;;;;;;29.00;15.07;;;0.10;99.90;;;;;;4194500;28;20476;-66
2023/01/25 19:02:22;;;;;;;41.03;16.47;;;0.20;99.90;;;;;;4197939;28;20662;-66
2023/01/25 19:04:23;;;;;;;42.30;15.73;;;0.10;99.90;;;;;;4195190;28;20677;-68
2023/01/25 19:06:24;;;;;;;29.43;12.10;;;0.30;99.90;;;;;;4198081;28;20597;-66
2023/01/25 19:08:25;;;;;;;28.17;13.57;;;0.30;99.90;;;;;;4197817;28;20191;-66
2023/01/25 19:10:26;;;;;;;34.93;14.53;;;0.30;99.90;;;;;;4180492;28;20291;-66
2023/01/25 19:12:27;;;;;;;31.03;13.07;;;0.30;99.90;;;;;;4195626;28;20473;-66
2023/01/25 19:14:28;;;;;;;34.83;15.27;;;0.40;99.90;;;;;;4197811;28;20233;-67
2023/01/25 19:16:29;;;;;;;27.17;12.80;;;0.30;99.90;;;;;;4197743;28;20184;-67
2023/01/25 19:18:36;;;;;;;29.50;13.43;;;0.30;99.90;;;;;;4180393;28;20263;-67
2023/01/25 19:20:37;;;;;;;28.20;13.63;;;0.30;99.90;;;;;;4181190;28;20835;-67
2023/01/25 19:22:39;;;;;;;29.83;12.13;;;0.20;99.90;;;;;;4198343;28;20417;-65
2023/01/25 19:24:40;;;;;;;26.97;11.43;;;0.30;99.90;;;;;;4197874;28;20472;-67
2023/01/25 19:26:41;;;;;;;26.00;12.13;;;0.30;99.90;;;;;;4197638;28;20429;-66
2023/01/25 19:28:42;;;;;;;28.40;11.47;;;0.40;99.90;;;;;;4180732;28;20238;-66
2023/01/25 19:30:43;;;;;;;28.13;11.80;;;0.50;99.90;;;;;;4197253;28;20544;-66
2023/01/25 19:32:43;;;;;;;28.93;12.30;;;0.50;99.90;;;;;;4197401;28;20446;-65
2023/01/25 19:34:44;;;;;;;26.80;12.67;;;0.50;99.90;;;;;;4197674;28;20167;-65
2023/01/25 19:36:48;;;;;;;34.00;12.93;;;0.60;99.90;;;;;;4196708;28;20641;-64
2023/01/25 19:38:49;;;;;;;31.93;13.00;;;0.30;99.90;;;;;;4197428;28;20211;-66
2023/01/25 19:40:50;;;;;;;29.10;12.67;;;-0.10;99.90;;;;;;4197170;28;20808;-66
2023/01/25 19:42:51;;;;;;;31.60;13.33;;;-0.10;99.90;;;;;;4193596;28;20487;-66
2023/01/25 19:44:52;;;;;;;29.27;13.27;;;0.00;99.90;;;;;;4197338;28;20179;-66
2023/01/25 19:46:52;;;;;;;39.33;15.60;;;0.20;99.90;;;;;;4197184;28;20187;-66
2023/01/25 19:48:53;;;;;;;38.97;16.87;;;0.20;99.90;;;;;;4197406;28;20229;-66
2023/01/25 19:51:05;;;;;;;27.00;11.73;;;0.20;99.90;;;;;;4197100;28;20179;-66
2023/01/25 19:53:05;;;;;;;31.23;13.80;;;0.20;99.90;;;;;;4183731;28;20495;-65
2023/01/25 19:55:07;;;;;;;28.50;13.23;;;0.30;99.90;;;;;;4197056;28;20916;-67
2023/01/25 19:57:07;;;;;;;23.77;11.23;;;0.30;99.90;;;;;;4196530;28;20694;-66
2023/01/25 19:59:16;;;;;;;31.90;12.70;;;0.40;99.90;;;;;;4197080;28;20525;-67
2023/01/25 20:01:20;;;;;;;33.20;14.10;;;0.30;99.90;;;;;;4179455;28;20184;-66
2023/01/25 20:03:21;;;;;;;22.20;11.53;;;0.20;99.90;;;;;;4173660;28;21014;-68
2023/01/25 20:05:21;;;;;;;28.93;13.13;;;0.30;99.90;;;;;;4190477;28;20423;-67
2023/01/25 20:07:22;;;;;;;32.87;14.37;;;0.40;99.90;;;;;;4198151;28;20206;-67
2023/01/25 20:09:26;;;;;;;25.67;11.43;;;0.40;99.90;;;;;;4197531;28;20236;-67
2023/01/25 20:11:30;;;;;;;27.97;12.03;;;0.50;99.90;;;;;;4178981;28;20183;-68
2023/01/25 20:13:31;;;;;;;25.63;11.03;;;0.60;99.90;;;;;;4187468;28;20499;-67
2023/01/25 20:15:32;;;;;;;29.30;12.17;;;0.60;99.90;;;;;;4199101;28;20424;-67
2023/01/25 20:17:32;;;;;;;25.73;13.63;;;0.40;99.90;;;;;;4199768;28;20172;-72
2023/01/25 20:19:35;;;;;;;30.63;13.17;;;0.50;99.90;;;;;;4189704;28;20198;-66
2023/01/25 20:21:38;;;;;;;26.53;13.17;;;0.60;99.90;;;;;;4198288;28;20188;-66
2023/01/25 20:23:42;;;;;;;35.93;16.33;;;0.60;99.90;;;;;;4195653;28;20454;-66
2023/01/25 20:25:42;;;;;;;32.20;15.43;;;0.60;99.90;;;;;;4186215;28;21165;-67
2023/01/25 20:27:43;;;;;;;34.73;14.60;;;0.60;99.90;;;;;;4197306;28;20454;-67
2023/01/25 20:29:44;;;;;;;32.13;13.57;;;0.70;99.90;;;;;;4196487;28;20226;-69
2023/01/25 20:31:45;;;;;;;34.10;13.60;;;0.70;99.90;;;;;;4197651;28;20649;-67
2023/01/25 20:33:47;;;;;;;28.27;12.57;;;0.60;99.90;;;;;;4197262;28;20180;-66
2023/01/25 20:35:48;;;;;;;27.43;13.73;;;0.60;99.90;;;;;;4189725;28;20870;-67
2023/01/25 20:37:49;;;;;;;33.57;15.00;;;0.50;99.90;;;;;;4197194;28;20422;-65
2023/01/25 20:39:50;;;;;;;33.13;13.80;;;0.50;99.90;;;;;;4196805;28;20876;-67
2023/01/25 20:41:52;;;;;;;30.53;11.73;;;0.40;99.90;;;;;;4191971;28;20205;-67
2023/01/25 20:44:08;;;;;;;31.40;13.37;;;0.20;99.90;;;;;;4202543;28;20195;-68
2023/01/25 20:46:10;;;;;;;33.63;13.20;;;0.20;99.90;;;;;;4197545;28;20950;-70
2023/01/25 20:48:10;;;;;;;36.67;15.10;;;0.10;99.90;;;;;;4185254;28;20932;-69
2023/01/25 20:50:11;;;;;;;26.53;12.03;;;0.00;99.90;;;;;;4172861;28;20510;-68
2023/01/25 20:52:12;;;;;;;27.80;11.87;;;0.00;99.90;;;;;;4192654;28;20176;-68
2023/01/25 20:54:14;;;;;;;25.03;11.10;;;-0.10;99.90;;;;;;4196560;28;20180;-69
2023/01/25 20:56:17;;;;;;;32.10;13.40;;;0.00;99.90;;;;;;4188336;28;20567;-68
2023/01/25 20:58:18;;;;;;;33.10;12.10;;;0.10;99.90;;;;;;4196621;28;20788;-67
2023/01/25 21:00:19;;;;;;;30.23;12.50;;;0.00;99.90;;;;;;4196777;28;20446;-67
2023/01/25 21:02:19;;;;;;;27.43;11.83;;;0.10;99.90;;;;;;4186660;28;20176;-67
2023/01/25 21:04:20;;;;;;;27.53;12.23;;;0.20;99.90;;;;;;4197217;28;20604;-67
2023/01/25 21:06:24;;;;;;;31.07;12.07;;;0.30;99.90;;;;;;4186939;28;20634;-68
2023/01/25 21:08:26;;;;;;;34.00;13.80;;;0.30;99.90;;;;;;4196855;28;20188;-67
2023/01/25 21:10:28;;;;;;;37.10;14.47;;;0.30;99.90;;;;;;4196690;28;20470;-68
2023/01/25 21:12:30;;;;;;;33.83;14.27;;;0.20;99.90;;;;;;4196815;28;20484;-67
2023/01/25 21:14:30;;;;;;;43.97;17.73;;;0.20;99.90;;;;;;4188060;28;20441;-67
2023/01/25 21:16:31;;;;;;;38.87;15.63;;;0.20;99.90;;;;;;4196965;28;20504;-66
2023/01/25 21:18:37;;;;;;;52.23;19.20;;;0.20;99.90;;;;;;4196896;28;20229;-67
2023/01/25 21:20:38;;;;;;;51.13;17.07;;;0.30;99.90;;;;;;4185251;28;20222;-69
2023/01/25 21:22:38;;;;;;;38.57;14.07;;;0.30;99.90;;;;;;4197245;28;20425;-69
2023/01/25 21:24:39;;;;;;;65.40;17.20;;;0.30;99.90;;;;;;4197179;28;20182;-68
2023/01/25 21:26:40;;;;;;;35.37;13.27;;;0.30;99.90;;;;;;4197190;28;20184;-69
2023/01/25 21:28:41;;;;;;;39.17;13.63;;;0.30;99.90;;;;;;4196764;28;20184;-65
2023/01/25 21:30:41;;;;;;;34.07;12.53;;;0.30;99.90;;;;;;4196613;28;20202;-67
2023/01/25 21:32:42;;;;;;;38.30;15.03;;;0.30;99.90;;;;;;4197172;28;20219;-66
2023/01/25 21:34:42;;;;;;;40.57;14.67;;;0.40;99.90;;;;;;4196334;28;20191;-68
2023/01/25 21:36:43;;;;;;;28.20;12.13;;;0.20;99.90;;;;;;4196785;28;20176;-66
2023/01/25 21:38:47;;;;;;;29.30;12.63;;;0.20;99.90;;;;;;4196302;28;20184;-67
2023/01/25 21:40:48;;;;;;;32.70;13.23;;;0.20;99.90;;;;;;4183495;28;20185;-67
2023/01/25 21:42:48;;;;;;;23.27;10.53;;;0.10;99.90;;;;;;4196484;28;20559;-67
2023/01/25 21:47:08;;;;;;;35.57;12.60;;;0.10;99.90;;;;;;4196704;28;20202;-66
2023/01/25 21:51:38;;;;;;;30.07;11.30;;;0.10;99.90;;;;;;4165711;28;20620;-65
2023/01/25 21:53:39;;;;;;;24.77;11.80;;;0.00;99.90;;;;;;4196747;28;20405;-71
2023/01/25 21:55:39;;;;;;;43.60;14.93;;;0.10;99.90;;;;;;4196195;28;20428;-67
2023/01/25 21:57:45;;;;;;;42.60;14.27;;;0.00;99.90;;;;;;4196299;28;20184;-66
2023/01/25 21:59:47;;;;;;;34.60;13.37;;;0.10;99.90;;;;;;4179768;28;20206;-67
2023/01/25 22:01:49;;;;;;;47.67;15.07;;;0.10;99.90;;;;;;4194993;28;20418;-68
2023/01/25 22:03:50;;;;;;;34.43;12.50;;;0.00;99.90;;;;;;4181928;28;20438;-66
2023/01/25 22:05:54;;;;;;;37.57;12.60;;;-0.20;99.90;;;;;;4180314;28;20544;-67
2023/01/25 22:07:54;;;;;;;32.03;13.23;;;-0.30;99.90;;;;;;4190559;28;20418;-68
2023/01/25 22:09:55;;;;;;;30.77;12.00;;;-0.20;99.90;;;;;;4196020;28;20469;-68
2023/01/25 22:11:56;;;;;;;33.70;13.70;;;-0.20;99.90;;;;;;4199834;28;20202;-68
2023/01/25 22:13:56;;;;;;;32.90;13.37;;;-0.10;99.90;;;;;;4199142;28;20644;-68
2023/01/25 22:16:00;;;;;;;44.43;13.47;;;-0.10;99.90;;;;;;4197091;28;20179;-66
2023/01/25 22:18:01;;;;;;;35.37;13.13;;;0.10;99.90;;;;;;4196694;28;20229;-68
2023/01/25 22:20:02;;;;;;;32.53;12.47;;;0.20;99.90;;;;;;4196211;28;20962;-67
2023/01/25 22:22:02;;;;;;;39.30;13.23;;;0.20;99.90;;;;;;4183500;28;20258;-67
2023/01/25 22:24:05;;;;;;;35.33;12.87;;;0.10;99.90;;;;;;4172961;28;20770;-68
2023/01/25 22:26:15;;;;;;;37.17;13.77;;;0.10;99.90;;;;;;4185433;28;20704;-68
2023/01/25 22:28:18;;;;;;;25.43;10.47;;;0.00;99.90;;;;;;4187991;28;20986;-68
2023/01/25 22:30:19;;;;;;;41.03;13.60;;;-0.20;99.90;;;;;;4185609;28;20500;-68
2023/01/25 22:32:20;;;;;;;49.23;12.90;;;-0.50;99.90;;;;;;4196524;28;20939;-68
2023/01/25 22:34:20;;;;;;;35.63;12.33;;;-0.50;99.90;;;;;;4196127;28;20175;-68
2023/01/25 22:36:23;;;;;;;32.30;11.43;;;-0.50;99.90;;;;;;4186517;28;20224;-67
2023/01/25 22:38:24;;;;;;;30.60;11.77;;;-0.40;99.90;;;;;;4196336;28;20741;-65
2023/01/25 22:40:25;;;;;;;54.37;17.40;;;-0.40;99.90;;;;;;4196347;28;20480;-65
2023/01/25 22:42:25;;;;;;;59.80;17.13;;;-0.40;99.90;;;;;;4193093;28;20196;-64
2023/01/25 22:44:26;;;;;;;31.10;11.90;;;-0.30;99.90;;;;;;4186348;28;20234;-65
2023/01/25 22:46:29;;;;;;;53.83;17.00;;;-0.20;99.90;;;;;;4202299;28;20676;-66
2023/01/25 22:48:29;;;;;;;47.93;15.63;;;-0.20;99.90;;;;;;4187086;28;20172;-66
2023/01/25 22:50:30;;;;;;;42.57;13.90;;;-0.10;99.90;;;;;;4195383;28;20417;-65
2023/01/25 22:52:31;;;;;;;44.30;13.73;;;0.00;99.90;;;;;;4195743;28;20180;-65
2023/01/25 22:54:31;;;;;;;65.43;17.03;;;0.00;99.90;;;;;;4196213;28;20198;-67
2023/01/25 22:56:33;;;;;;;36.37;12.13;;;0.10;99.90;;;;;;4195670;28;20178;-67
2023/01/25 22:58:35;;;;;;;34.17;12.70;;;0.10;99.90;;;;;;4195602;28;20180;-66
2023/01/25 23:00:37;;;;;;;39.20;12.87;;;-0.10;99.90;;;;;;4187405;28;20491;-65
2023/01/25 23:02:38;;;;;;;45.60;15.07;;;-0.20;99.90;;;;;;4195671;28;20453;-65
2023/01/25 23:04:38;;;;;;;42.13;15.10;;;-0.30;99.90;;;;;;4195535;28;20483;-65
2023/01/25 23:06:39;;;;;;;60.27;16.27;;;-0.30;99.90;;;;;;4184083;28;20169;-66
2023/01/25 23:08:40;;;;;;;46.77;14.43;;;-0.30;99.90;;;;;;4195582;28;20179;-66
2023/01/25 23:10:41;;;;;;;34.47;11.73;;;-0.20;99.90;;;;;;4183629;28;20185;-66
2023/01/25 23:12:41;;;;;;;32.27;11.80;;;-0.20;99.90;;;;;;4197840;28;20609;-67
2023/01/25 23:14:52;;;;;;;34.27;11.80;;;-0.20;99.90;;;;;;4186924;28;20196;-66
2023/01/25 23:18:48;;;;;;;22.63;9.43;;;-0.10;99.90;;;;;;4197694;28;20183;-67
2023/01/25 23:19:14;;;;;;;24.83;10.00;;;-0.30;99.90;;;;;;4198163;28;20448;-66
2023/01/25 23:21:21;;;;;;;25.63;9.93;;;-0.50;99.90;;;;;;4196923;28;20897;-66
2023/01/25 23:23:22;;;;;;;34.07;11.57;;;-0.50;99.90;;;;;;4197686;28;20657;-66
2023/01/25 23:25:23;;;;;;;25.57;9.57;;;-0.50;99.90;;;;;;4181069;28;20454;-66
2023/01/25 23:27:23;;;;;;;26.93;10.53;;;-0.50;99.90;;;;;;4197785;28;20168;-66
2023/01/25 23:29:24;;;;;;;24.90;9.67;;;-0.40;99.90;;;;;;4198842;28;20222;-66
2023/01/25 23:31:25;;;;;;;34.97;12.30;;;-0.40;99.90;;;;;;4197488;28;20203;-66
2023/01/25 23:33:28;;;;;;;29.13;11.40;;;-0.30;99.90;;;;;;4197698;28;20184;-66
2023/01/25 23:35:28;;;;;;;42.37;13.97;;;-0.30;99.90;;;;;;4199308;28;20180;-66
2023/01/25 23:37:29;;;;;;;37.53;15.17;;;-0.30;99.90;;;;;;4198809;28;20426;-66
2023/01/25 23:39:30;;;;;;;32.50;12.37;;;-0.30;99.90;;;;;;4198757;28;20573;-66
2023/01/25 23:41:31;;;;;;;40.20;12.30;;;-0.30;99.90;;;;;;4198066;28;20570;-66
2023/01/25 23:43:32;;;;;;;72.37;18.13;;;-0.40;99.90;;;;;;4196309;28;20184;-66
2023/01/25 23:45:32;;;;;;;32.23;11.97;;;-0.50;99.90;;;;;;4196186;28;20451;-66
2023/01/25 23:47:33;;;;;;;38.67;13.57;;;-0.40;99.90;;;;;;4196247;28;20751;-66
2023/01/25 23:49:34;;;;;;;46.73;14.63;;;-0.30;99.90;;;;;;4195822;28;20239;-65
2023/01/25 23:51:35;;;;;;;46.40;13.90;;;-0.40;99.90;;;;;;4195938;28;20203;-65
2023/01/25 23:53:37;;;;;;;42.30;15.73;;;-0.50;99.90;;;;;;4179528;28;20180;-65
2023/01/25 23:55:37;;;;;;;74.20;16.40;;;-0.40;99.90;;;;;;4179429;28;20187;-66
2023/01/25 23:57:38;;;;;;;48.17;14.17;;;-0.30;99.90;;;;;;4195990;28;20843;-66
2023/01/25 23:59:39;;;;;;;38.37;11.33;;;-0.40;99.90;;;;;;4197020;28;20195;-66
